sensor_id;sensor_type;location;lat;lon;timestamp;temperature;humidity
21171;DHT22;10743;52.160;20.910;2022-09-21T00:01:20;27.40;38.30
21171;DHT22;10743;52.160;20.910;2022-09-21T00:03:57;27.40;38.30
21171;DHT22;10743;52.160;20.910;2022-09-21T00:06:27;27.30;38.20
21171;DHT22;10743;52.160;20.910;2022-09-21T00:08:55;27.30;38.30
21171;DHT22;10743;52.160;20.910;2022-09-21T00:11:25;27.30;38.30
21171;DHT22;10743;52.160;20.910;2022-09-21T00:14:00;27.40;38.30
21171;DHT22;10743;52.160;20.910;2022-09-21T00:16:30;27.40;38.40
21171;DHT22;10743;52.160;20.910;2022-09-21T00:18:58;27.40;38.40
21171;DHT22;10743;52.160;20.910;2022-09-21T00:21:25;27.40;38.40
21171;DHT22;10743;52.160;20.910;2022-09-21T00:23:53;27.40;38.30
21171;DHT22;10743;52.160;20.910;2022-09-21T00:26:22;27.40;38.40
21171;DHT22;10743;52.160;20.910;2022-09-21T00:28:52;27.40;38.50
21171;DHT22;10743;52.160;20.910;2022-09-21T00:31:21;27.40;38.40
21171;DHT22;10743;52.160;20.910;2022-09-21T00:33:48;27.40;38.50
21171;DHT22;10743;52.160;20.910;2022-09-21T00:36:19;27.40;38.50
21171;DHT22;10743;52.160;20.910;2022-09-21T00:38:52;27.40;38.50
21171;DHT22;10743;52.160;20.910;2022-09-21T00:41:21;27.40;38.50
21171;DHT22;10743;52.160;20.910;2022-09-21T00:46:45;27.40;38.50
21171;DHT22;10743;52.160;20.910;2022-09-21T00:49:14;27.40;38.50
21171;DHT22;10743;52.160;20.910;2022-09-21T00:51:41;27.40;38.60
21171;DHT22;10743;52.160;20.910;2022-09-21T00:54:13;27.40;38.60
21171;DHT22;10743;52.160;20.910;2022-09-21T00:56:45;27.50;38.70
21171;DHT22;10743;52.160;20.910;2022-09-21T00:59:14;27.40;38.70
21171;DHT22;10743;52.160;20.910;2022-09-21T01:01:47;27.50;38.70
21171;DHT22;10743;52.160;20.910;2022-09-21T01:04:14;27.50;38.60
21171;DHT22;10743;52.160;20.910;2022-09-21T01:06:44;27.50;38.70
21171;DHT22;10743;52.160;20.910;2022-09-21T01:09:13;27.50;38.70
21171;DHT22;10743;52.160;20.910;2022-09-21T01:12:02;27.50;38.80
21171;DHT22;10743;52.160;20.910;2022-09-21T01:17:51;27.50;38.80
21171;DHT22;10743;52.160;20.910;2022-09-21T01:20:31;27.50;38.80
21171;DHT22;10743;52.160;20.910;2022-09-21T01:23:23;27.50;38.90
21171;DHT22;10743;52.160;20.910;2022-09-21T01:29:24;27.50;38.90
21171;DHT22;10743;52.160;20.910;2022-09-21T01:35:04;27.50;38.90
21171;DHT22;10743;52.160;20.910;2022-09-21T01:37:39;27.50;38.90
21171;DHT22;10743;52.160;20.910;2022-09-21T01:40:13;27.50;38.90
21171;DHT22;10743;52.160;20.910;2022-09-21T01:42:45;27.50;38.80
21171;DHT22;10743;52.160;20.910;2022-09-21T01:45:15;27.60;38.90
21171;DHT22;10743;52.160;20.910;2022-09-21T01:47:46;27.60;38.90
21171;DHT22;10743;52.160;20.910;2022-09-21T01:50:22;27.60;38.90
21171;DHT22;10743;52.160;20.910;2022-09-21T01:53:02;27.60;39.60
21171;DHT22;10743;52.160;20.910;2022-09-21T01:56:00;27.60;39.00
21171;DHT22;10743;52.160;20.910;2022-09-21T01:58:40;27.60;39.00
21171;DHT22;10743;52.160;20.910;2022-09-21T02:01:14;27.60;38.90
21171;DHT22;10743;52.160;20.910;2022-09-21T02:03:53;27.60;38.90
21171;DHT22;10743;52.160;20.910;2022-09-21T02:06:31;27.60;39.00
21171;DHT22;10743;52.160;20.910;2022-09-21T02:08:58;27.60;39.00
21171;DHT22;10743;52.160;20.910;2022-09-21T02:11:25;27.60;38.90
21171;DHT22;10743;52.160;20.910;2022-09-21T02:13:54;27.60;39.60
21171;DHT22;10743;52.160;20.910;2022-09-21T02:17:04;27.60;38.90
21171;DHT22;10743;52.160;20.910;2022-09-21T02:28:33;27.60;38.90
21171;DHT22;10743;52.160;20.910;2022-09-21T02:31:09;27.70;38.90
21171;DHT22;10743;52.160;20.910;2022-09-21T02:34:24;27.70;38.90
21171;DHT22;10743;52.160;20.910;2022-09-21T02:37:06;27.70;38.90
21171;DHT22;10743;52.160;20.910;2022-09-21T02:40:06;27.70;38.90
21171;DHT22;10743;52.160;20.910;2022-09-21T02:42:40;27.60;38.80
21171;DHT22;10743;52.160;20.910;2022-09-21T02:45:16;27.60;38.90
21171;DHT22;10743;52.160;20.910;2022-09-21T02:47:55;27.60;38.90
21171;DHT22;10743;52.160;20.910;2022-09-21T02:50:30;27.70;38.90
21171;DHT22;10743;52.160;20.910;2022-09-21T02:53:03;27.70;38.80
21171;DHT22;10743;52.160;20.910;2022-09-21T02:55:32;27.70;38.90
21171;DHT22;10743;52.160;20.910;2022-09-21T02:58:03;27.70;38.80
21171;DHT22;10743;52.160;20.910;2022-09-21T03:00:33;27.70;38.80
21171;DHT22;10743;52.160;20.910;2022-09-21T03:03:14;27.70;38.80
21171;DHT22;10743;52.160;20.910;2022-09-21T03:05:44;27.70;38.70
21171;DHT22;10743;52.160;20.910;2022-09-21T03:08:15;27.70;38.80
21171;DHT22;10743;52.160;20.910;2022-09-21T03:10:43;27.70;38.80
21171;DHT22;10743;52.160;20.910;2022-09-21T03:13:10;27.70;38.80
21171;DHT22;10743;52.160;20.910;2022-09-21T03:15:38;27.70;38.70
21171;DHT22;10743;52.160;20.910;2022-09-21T03:18:07;27.70;38.80
21171;DHT22;10743;52.160;20.910;2022-09-21T03:20:38;27.70;38.70
21171;DHT22;10743;52.160;20.910;2022-09-21T03:23:06;27.70;38.80
21171;DHT22;10743;52.160;20.910;2022-09-21T03:25:33;27.80;38.80
21171;DHT22;10743;52.160;20.910;2022-09-21T03:28:01;27.80;38.80
21171;DHT22;10743;52.160;20.910;2022-09-21T03:30:28;27.80;38.70
21171;DHT22;10743;52.160;20.910;2022-09-21T03:32:55;27.80;38.80
21171;DHT22;10743;52.160;20.910;2022-09-21T03:35:23;27.80;38.70
21171;DHT22;10743;52.160;20.910;2022-09-21T03:37:52;27.80;38.80
21171;DHT22;10743;52.160;20.910;2022-09-21T03:40:20;27.80;38.80
21171;DHT22;10743;52.160;20.910;2022-09-21T03:42:48;27.80;38.70
21171;DHT22;10743;52.160;20.910;2022-09-21T03:45:16;27.80;38.80
21171;DHT22;10743;52.160;20.910;2022-09-21T03:47:42;27.80;38.90
21171;DHT22;10743;52.160;20.910;2022-09-21T03:50:10;27.80;38.90
21171;DHT22;10743;52.160;20.910;2022-09-21T03:52:37;27.80;38.80
21171;DHT22;10743;52.160;20.910;2022-09-21T03:55:06;27.80;38.90
21171;DHT22;10743;52.160;20.910;2022-09-21T03:57:37;27.80;38.80
21171;DHT22;10743;52.160;20.910;2022-09-21T04:00:07;27.80;38.90
21171;DHT22;10743;52.160;20.910;2022-09-21T04:02:37;27.80;38.90
21171;DHT22;10743;52.160;20.910;2022-09-21T04:05:11;27.80;38.80
21171;DHT22;10743;52.160;20.910;2022-09-21T04:07:42;27.80;38.90
21171;DHT22;10743;52.160;20.910;2022-09-21T04:10:13;27.80;38.80
21171;DHT22;10743;52.160;20.910;2022-09-21T04:12:43;27.80;38.80
21171;DHT22;10743;52.160;20.910;2022-09-21T04:15:12;27.80;38.80
21171;DHT22;10743;52.160;20.910;2022-09-21T04:17:40;27.80;38.80
21171;DHT22;10743;52.160;20.910;2022-09-21T04:20:08;27.80;38.90
21171;DHT22;10743;52.160;20.910;2022-09-21T04:22:35;27.80;38.90
21171;DHT22;10743;52.160;20.910;2022-09-21T04:25:09;27.90;38.90
21171;DHT22;10743;52.160;20.910;2022-09-21T04:27:36;27.90;39.00
21171;DHT22;10743;52.160;20.910;2022-09-21T04:30:04;27.90;38.90
21171;DHT22;10743;52.160;20.910;2022-09-21T04:32:31;27.90;38.90
21171;DHT22;10743;52.160;20.910;2022-09-21T04:34:58;27.90;38.90
21171;DHT22;10743;52.160;20.910;2022-09-21T04:37:25;27.90;38.90
21171;DHT22;10743;52.160;20.910;2022-09-21T04:39:52;27.90;38.90
21171;DHT22;10743;52.160;20.910;2022-09-21T04:42:19;27.90;38.80
21171;DHT22;10743;52.160;20.910;2022-09-21T04:44:47;27.90;38.90
21171;DHT22;10743;52.160;20.910;2022-09-21T04:47:13;27.90;38.90
21171;DHT22;10743;52.160;20.910;2022-09-21T04:49:41;27.90;38.80
21171;DHT22;10743;52.160;20.910;2022-09-21T04:52:07;27.90;38.80
21171;DHT22;10743;52.160;20.910;2022-09-21T04:54:34;27.90;38.90
21171;DHT22;10743;52.160;20.910;2022-09-21T04:57:01;27.90;38.80
21171;DHT22;10743;52.160;20.910;2022-09-21T04:59:28;27.90;38.80
21171;DHT22;10743;52.160;20.910;2022-09-21T05:01:55;27.90;38.90
21171;DHT22;10743;52.160;20.910;2022-09-21T05:04:24;27.90;38.90
21171;DHT22;10743;52.160;20.910;2022-09-21T05:06:50;27.90;38.90
21171;DHT22;10743;52.160;20.910;2022-09-21T05:09:17;27.90;39.00
21171;DHT22;10743;52.160;20.910;2022-09-21T05:12:03;27.90;39.00
21171;DHT22;10743;52.160;20.910;2022-09-21T05:14:30;28.00;39.70
21171;DHT22;10743;52.160;20.910;2022-09-21T05:16:57;27.90;39.00
21171;DHT22;10743;52.160;20.910;2022-09-21T05:19:23;28.00;39.00
21171;DHT22;10743;52.160;20.910;2022-09-21T05:21:50;28.00;39.10
21171;DHT22;10743;52.160;20.910;2022-09-21T05:24:17;27.90;39.00
21171;DHT22;10743;52.160;20.910;2022-09-21T05:26:44;28.00;39.00
21171;DHT22;10743;52.160;20.910;2022-09-21T05:29:11;28.00;39.00
21171;DHT22;10743;52.160;20.910;2022-09-21T05:31:48;28.00;39.00
21171;DHT22;10743;52.160;20.910;2022-09-21T05:34:35;28.00;38.90
21171;DHT22;10743;52.160;20.910;2022-09-21T05:37:20;28.00;38.90
21171;DHT22;10743;52.160;20.910;2022-09-21T05:39:57;28.00;39.10
21171;DHT22;10743;52.160;20.910;2022-09-21T05:42:24;28.00;38.90
21171;DHT22;10743;52.160;20.910;2022-09-21T05:44:51;28.00;38.90
21171;DHT22;10743;52.160;20.910;2022-09-21T05:53:31;28.00;38.90
21171;DHT22;10743;52.160;20.910;2022-09-21T05:56:58;28.00;39.00
21171;DHT22;10743;52.160;20.910;2022-09-21T05:59:57;28.00;38.90
21171;DHT22;10743;52.160;20.910;2022-09-21T06:05:47;28.10;39.00
21171;DHT22;10743;52.160;20.910;2022-09-21T06:08:14;28.10;39.00
21171;DHT22;10743;52.160;20.910;2022-09-21T06:10:41;28.00;38.90
21171;DHT22;10743;52.160;20.910;2022-09-21T06:13:08;28.10;39.00
21171;DHT22;10743;52.160;20.910;2022-09-21T06:15:35;28.10;39.20
21171;DHT22;10743;52.160;20.910;2022-09-21T06:18:07;28.10;39.20
21171;DHT22;10743;52.160;20.910;2022-09-21T06:20:38;28.10;39.00
21171;DHT22;10743;52.160;20.910;2022-09-21T06:23:11;28.10;39.10
21171;DHT22;10743;52.160;20.910;2022-09-21T06:25:38;28.10;39.10
21171;DHT22;10743;52.160;20.910;2022-09-21T06:28:08;28.10;39.00
21171;DHT22;10743;52.160;20.910;2022-09-21T06:30:38;28.10;39.00
21171;DHT22;10743;52.160;20.910;2022-09-21T06:33:07;28.20;39.00
21171;DHT22;10743;52.160;20.910;2022-09-21T06:35:35;28.20;39.00
21171;DHT22;10743;52.160;20.910;2022-09-21T06:38:05;28.20;38.80
21171;DHT22;10743;52.160;20.910;2022-09-21T06:40:34;28.20;38.80
21171;DHT22;10743;52.160;20.910;2022-09-21T06:43:04;28.20;38.80
21171;DHT22;10743;52.160;20.910;2022-09-21T06:45:31;28.30;38.80
21171;DHT22;10743;52.160;20.910;2022-09-21T06:47:58;28.30;38.90
21171;DHT22;10743;52.160;20.910;2022-09-21T06:50:25;28.30;38.70
21171;DHT22;10743;52.160;20.910;2022-09-21T06:52:52;28.30;38.60
21171;DHT22;10743;52.160;20.910;2022-09-21T06:55:19;28.30;38.70
21171;DHT22;10743;52.160;20.910;2022-09-21T06:57:46;28.30;38.80
21171;DHT22;10743;52.160;20.910;2022-09-21T07:00:13;28.30;38.60
21171;DHT22;10743;52.160;20.910;2022-09-21T07:02:44;28.20;38.60
21171;DHT22;10743;52.160;20.910;2022-09-21T07:05:11;28.30;38.80
21171;DHT22;10743;52.160;20.910;2022-09-21T07:07:38;28.30;38.80
21171;DHT22;10743;52.160;20.910;2022-09-21T07:10:06;28.30;38.80
21171;DHT22;10743;52.160;20.910;2022-09-21T07:12:42;28.30;38.80
21171;DHT22;10743;52.160;20.910;2022-09-21T07:15:09;28.40;38.40
21171;DHT22;10743;52.160;20.910;2022-09-21T07:17:38;28.40;38.50
21171;DHT22;10743;52.160;20.910;2022-09-21T07:20:06;28.40;38.20
21171;DHT22;10743;52.160;20.910;2022-09-21T07:22:34;28.50;38.10
21171;DHT22;10743;52.160;20.910;2022-09-21T07:25:02;28.40;38.00
21171;DHT22;10743;52.160;20.910;2022-09-21T07:27:31;28.40;38.00
21171;DHT22;10743;52.160;20.910;2022-09-21T07:29:59;28.40;38.10
21171;DHT22;10743;52.160;20.910;2022-09-21T07:32:26;28.40;38.20
21171;DHT22;10743;52.160;20.910;2022-09-21T07:34:53;28.40;38.20
21171;DHT22;10743;52.160;20.910;2022-09-21T07:37:23;28.30;38.10
21171;DHT22;10743;52.160;20.910;2022-09-21T07:39:51;28.30;38.20
21171;DHT22;10743;52.160;20.910;2022-09-21T07:42:19;28.30;38.00
21171;DHT22;10743;52.160;20.910;2022-09-21T07:44:48;28.40;38.10
21171;DHT22;10743;52.160;20.910;2022-09-21T07:47:16;28.40;37.90
21171;DHT22;10743;52.160;20.910;2022-09-21T07:49:43;28.40;38.00
21171;DHT22;10743;52.160;20.910;2022-09-21T07:52:11;28.50;38.00
21171;DHT22;10743;52.160;20.910;2022-09-21T07:54:38;28.50;38.30
21171;DHT22;10743;52.160;20.910;2022-09-21T07:57:05;28.60;38.90
21171;DHT22;10743;52.160;20.910;2022-09-21T07:59:50;28.60;38.30
21171;DHT22;10743;52.160;20.910;2022-09-21T08:02:17;28.60;38.20
21171;DHT22;10743;52.160;20.910;2022-09-21T08:04:44;28.70;38.20
21171;DHT22;10743;52.160;20.910;2022-09-21T08:07:11;28.70;38.00
21171;DHT22;10743;52.160;20.910;2022-09-21T08:09:38;28.80;38.00
21171;DHT22;10743;52.160;20.910;2022-09-21T08:12:07;28.90;37.90
21171;DHT22;10743;52.160;20.910;2022-09-21T08:14:34;29.00;37.70
21171;DHT22;10743;52.160;20.910;2022-09-21T08:17:01;29.00;37.30
21171;DHT22;10743;52.160;20.910;2022-09-21T08:19:28;29.00;37.10
21171;DHT22;10743;52.160;20.910;2022-09-21T08:21:55;29.10;37.20
21171;DHT22;10743;52.160;20.910;2022-09-21T08:24:23;29.20;37.00
21171;DHT22;10743;52.160;20.910;2022-09-21T08:26:53;29.20;37.20
21171;DHT22;10743;52.160;20.910;2022-09-21T08:29:23;29.20;37.10
21171;DHT22;10743;52.160;20.910;2022-09-21T08:31:50;29.30;37.00
21171;DHT22;10743;52.160;20.910;2022-09-21T08:34:19;29.30;36.90
21171;DHT22;10743;52.160;20.910;2022-09-21T08:36:46;29.30;36.90
21171;DHT22;10743;52.160;20.910;2022-09-21T08:39:20;29.30;36.70
21171;DHT22;10743;52.160;20.910;2022-09-21T08:42:04;29.30;36.20
21171;DHT22;10743;52.160;20.910;2022-09-21T08:44:45;29.30;36.00
21171;DHT22;10743;52.160;20.910;2022-09-21T08:47:20;29.30;35.90
21171;DHT22;10743;52.160;20.910;2022-09-21T08:49:55;29.40;36.00
21171;DHT22;10743;52.160;20.910;2022-09-21T08:52:23;29.40;36.00
21171;DHT22;10743;52.160;20.910;2022-09-21T08:54:57;29.40;35.80
21171;DHT22;10743;52.160;20.910;2022-09-21T08:57:29;29.50;36.00
21171;DHT22;10743;52.160;20.910;2022-09-21T08:59:58;29.50;36.10
21171;DHT22;10743;52.160;20.910;2022-09-21T09:05:58;29.50;36.10
21171;DHT22;10743;52.160;20.910;2022-09-21T09:20:29;29.60;35.00
21171;DHT22;10743;52.160;20.910;2022-09-21T09:23:18;29.60;35.10
21171;DHT22;10743;52.160;20.910;2022-09-21T09:25:50;29.70;35.20
21171;DHT22;10743;52.160;20.910;2022-09-21T09:28:23;29.70;35.30
21171;DHT22;10743;52.160;20.910;2022-09-21T09:31:32;29.70;35.40
21171;DHT22;10743;52.160;20.910;2022-09-21T09:34:22;29.70;35.50
21171;DHT22;10743;52.160;20.910;2022-09-21T09:36:57;29.70;35.50
21171;DHT22;10743;52.160;20.910;2022-09-21T09:39:27;29.70;35.50
21171;DHT22;10743;52.160;20.910;2022-09-21T09:42:16;29.80;35.60
21171;DHT22;10743;52.160;20.910;2022-09-21T09:48:17;29.80;35.60
21171;DHT22;10743;52.160;20.910;2022-09-21T09:50:52;29.80;35.60
21171;DHT22;10743;52.160;20.910;2022-09-21T09:53:22;29.80;35.50
21171;DHT22;10743;52.160;20.910;2022-09-21T09:55:56;29.80;35.60
21171;DHT22;10743;52.160;20.910;2022-09-21T10:01:42;29.90;35.40
21171;DHT22;10743;52.160;20.910;2022-09-21T10:04:16;29.90;35.60
21171;DHT22;10743;52.160;20.910;2022-09-21T10:06:44;29.90;35.40
21171;DHT22;10743;52.160;20.910;2022-09-21T10:09:23;29.90;35.30
21171;DHT22;10743;52.160;20.910;2022-09-21T10:12:01;29.90;35.10
21171;DHT22;10743;52.160;20.910;2022-09-21T10:14:35;30.00;35.10
21171;DHT22;10743;52.160;20.910;2022-09-21T10:17:05;30.00;35.20
21171;DHT22;10743;52.160;20.910;2022-09-21T10:19:33;30.00;35.00
21171;DHT22;10743;52.160;20.910;2022-09-21T10:22:02;30.00;34.90
21171;DHT22;10743;52.160;20.910;2022-09-21T10:24:32;30.10;35.60
21171;DHT22;10743;52.160;20.910;2022-09-21T10:27:13;30.10;35.10
21171;DHT22;10743;52.160;20.910;2022-09-21T10:29:43;30.10;35.00
21171;DHT22;10743;52.160;20.910;2022-09-21T10:34:43;30.30;35.30
21171;DHT22;10743;52.160;20.910;2022-09-21T10:37:31;30.30;34.30
21171;DHT22;10743;52.160;20.910;2022-09-21T10:40:23;30.30;34.40
21171;DHT22;10743;52.160;20.910;2022-09-21T10:42:57;30.40;34.40
21171;DHT22;10743;52.160;20.910;2022-09-21T10:50:42;30.60;34.80
21171;DHT22;10743;52.160;20.910;2022-09-21T10:53:30;30.60;34.60
21171;DHT22;10743;52.160;20.910;2022-09-21T10:56:05;30.60;34.90
21171;DHT22;10743;52.160;20.910;2022-09-21T11:01:49;30.60;35.60
21171;DHT22;10743;52.160;20.910;2022-09-21T11:04:43;30.60;35.70
21171;DHT22;10743;52.160;20.910;2022-09-21T11:07:23;30.70;36.00
21171;DHT22;10743;52.160;20.910;2022-09-21T11:10:07;30.60;36.10
21171;DHT22;10743;52.160;20.910;2022-09-21T11:12:57;30.70;36.30
21171;DHT22;10743;52.160;20.910;2022-09-21T11:15:54;30.70;35.80
21171;DHT22;10743;52.160;20.910;2022-09-21T11:21:50;30.70;35.30
21171;DHT22;10743;52.160;20.910;2022-09-21T11:24:23;30.70;35.40
21171;DHT22;10743;52.160;20.910;2022-09-21T11:26:58;30.80;35.10
21171;DHT22;10743;52.160;20.910;2022-09-21T11:29:47;30.90;35.40
21171;DHT22;10743;52.160;20.910;2022-09-21T11:41:24;31.20;34.20
21171;DHT22;10743;52.160;20.910;2022-09-21T11:44:30;31.20;34.50
21171;DHT22;10743;52.160;20.910;2022-09-21T11:47:30;31.30;33.60
21171;DHT22;10743;52.160;20.910;2022-09-21T11:53:24;31.30;34.00
21171;DHT22;10743;52.160;20.910;2022-09-21T11:59:36;31.40;32.60
21171;DHT22;10743;52.160;20.910;2022-09-21T12:08:34;31.40;32.50
21171;DHT22;10743;52.160;20.910;2022-09-21T12:11:21;31.40;32.40
21171;DHT22;10743;52.160;20.910;2022-09-21T12:14:22;31.40;32.50
21171;DHT22;10743;52.160;20.910;2022-09-21T12:17:10;31.50;32.60
21171;DHT22;10743;52.160;20.910;2022-09-21T12:22:50;31.50;32.00
21171;DHT22;10743;52.160;20.910;2022-09-21T12:25:34;31.50;32.00
21171;DHT22;10743;52.160;20.910;2022-09-21T12:28:28;31.50;31.80
21171;DHT22;10743;52.160;20.910;2022-09-21T12:31:02;31.50;32.10
21171;DHT22;10743;52.160;20.910;2022-09-21T12:33:47;31.50;31.50
21171;DHT22;10743;52.160;20.910;2022-09-21T12:36:26;31.50;31.90
21171;DHT22;10743;52.160;20.910;2022-09-21T12:39:00;31.50;31.80
21171;DHT22;10743;52.160;20.910;2022-09-21T12:41:54;31.60;32.10
21171;DHT22;10743;52.160;20.910;2022-09-21T12:44:44;31.60;31.70
21171;DHT22;10743;52.160;20.910;2022-09-21T12:47:29;31.60;31.80
21171;DHT22;10743;52.160;20.910;2022-09-21T12:50:28;31.70;31.50
21171;DHT22;10743;52.160;20.910;2022-09-21T12:53:00;31.70;31.10
21171;DHT22;10743;52.160;20.910;2022-09-21T12:59:04;31.70;31.70
21171;DHT22;10743;52.160;20.910;2022-09-21T13:02:01;31.70;32.00
21171;DHT22;10743;52.160;20.910;2022-09-21T13:04:51;31.70;32.10
21171;DHT22;10743;52.160;20.910;2022-09-21T13:10:41;31.70;32.10
21171;DHT22;10743;52.160;20.910;2022-09-21T13:16:34;31.60;31.60
21171;DHT22;10743;52.160;20.910;2022-09-21T13:19:20;31.60;31.90
21171;DHT22;10743;52.160;20.910;2022-09-21T13:22:11;31.50;32.30
21171;DHT22;10743;52.160;20.910;2022-09-21T13:30:30;31.20;32.10
21171;DHT22;10743;52.160;20.910;2022-09-21T13:33:04;31.10;31.90
21171;DHT22;10743;52.160;20.910;2022-09-21T13:38:33;31.00;32.00
21171;DHT22;10743;52.160;20.910;2022-09-21T13:41:26;30.90;32.40
21171;DHT22;10743;52.160;20.910;2022-09-21T13:46:59;30.70;32.60
21171;DHT22;10743;52.160;20.910;2022-09-21T13:49:31;30.60;32.70
21171;DHT22;10743;52.160;20.910;2022-09-21T13:54:48;30.50;32.80
21171;DHT22;10743;52.160;20.910;2022-09-21T13:57:25;30.50;33.00
21171;DHT22;10743;52.160;20.910;2022-09-21T14:05:39;30.50;33.70
21171;DHT22;10743;52.160;20.910;2022-09-21T14:11:16;30.50;34.00
21171;DHT22;10743;52.160;20.910;2022-09-21T14:16:49;30.60;34.50
21171;DHT22;10743;52.160;20.910;2022-09-21T14:27:32;30.60;34.30
21171;DHT22;10743;52.160;20.910;2022-09-21T14:30:19;30.60;34.20
21171;DHT22;10743;52.160;20.910;2022-09-21T14:35:34;30.60;34.00
21171;DHT22;10743;52.160;20.910;2022-09-21T14:38:12;30.60;34.10
21171;DHT22;10743;52.160;20.910;2022-09-21T14:40:48;30.60;33.60
21171;DHT22;10743;52.160;20.910;2022-09-21T14:43:22;30.60;33.60
21171;DHT22;10743;52.160;20.910;2022-09-21T14:46:29;30.60;33.70
21171;DHT22;10743;52.160;20.910;2022-09-21T14:49:41;30.60;33.70
21171;DHT22;10743;52.160;20.910;2022-09-21T14:55:31;30.70;33.30
21171;DHT22;10743;52.160;20.910;2022-09-21T15:04:21;30.60;32.90
21171;DHT22;10743;52.160;20.910;2022-09-21T15:10:46;30.60;33.30
21171;DHT22;10743;52.160;20.910;2022-09-21T15:19:20;30.60;33.60
21171;DHT22;10743;52.160;20.910;2022-09-21T15:21:51;30.60;33.80
21171;DHT22;10743;52.160;20.910;2022-09-21T15:24:28;30.60;33.60
21171;DHT22;10743;52.160;20.910;2022-09-21T15:29:32;30.60;33.80
21171;DHT22;10743;52.160;20.910;2022-09-21T15:32:00;30.60;33.70
21171;DHT22;10743;52.160;20.910;2022-09-21T15:34:27;30.60;33.90
21171;DHT22;10743;52.160;20.910;2022-09-21T15:37:11;30.60;33.80
21171;DHT22;10743;52.160;20.910;2022-09-21T15:39:42;30.60;33.80
21171;DHT22;10743;52.160;20.910;2022-09-21T15:44:37;30.60;33.90
21171;DHT22;10743;52.160;20.910;2022-09-21T15:47:10;30.60;33.90
21171;DHT22;10743;52.160;20.910;2022-09-21T15:49:39;30.60;33.80
21171;DHT22;10743;52.160;20.910;2022-09-21T15:52:25;30.60;33.80
21171;DHT22;10743;52.160;20.910;2022-09-21T15:54:59;30.60;34.00
21171;DHT22;10743;52.160;20.910;2022-09-21T15:57:35;30.60;34.10
21171;DHT22;10743;52.160;20.910;2022-09-21T16:03:35;30.50;34.30
21171;DHT22;10743;52.160;20.910;2022-09-21T16:05:49;30.50;34.40
21171;DHT22;10743;52.160;20.910;2022-09-21T16:11:19;30.40;34.20
21171;DHT22;10743;52.160;20.910;2022-09-21T16:14:11;30.40;34.10
21171;DHT22;10743;52.160;20.910;2022-09-21T16:22:26;30.40;35.30
21171;DHT22;10743;52.160;20.910;2022-09-21T16:24:57;30.40;35.50
21171;DHT22;10743;52.160;20.910;2022-09-21T16:27:27;30.30;35.50
21171;DHT22;10743;52.160;20.910;2022-09-21T16:29:56;30.30;35.30
21171;DHT22;10743;52.160;20.910;2022-09-21T16:32:32;30.30;35.40
21171;DHT22;10743;52.160;20.910;2022-09-21T16:35:25;30.20;35.40
21171;DHT22;10743;52.160;20.910;2022-09-21T16:37:57;30.20;35.60
21171;DHT22;10743;52.160;20.910;2022-09-21T16:40:25;30.10;35.60
21171;DHT22;10743;52.160;20.910;2022-09-21T16:42:53;30.10;35.70
21171;DHT22;10743;52.160;20.910;2022-09-21T16:45:27;30.00;35.70
21171;DHT22;10743;52.160;20.910;2022-09-21T16:47:57;30.00;35.70
21171;DHT22;10743;52.160;20.910;2022-09-21T16:50:25;30.00;35.90
21171;DHT22;10743;52.160;20.910;2022-09-21T16:52:51;29.90;35.90
21171;DHT22;10743;52.160;20.910;2022-09-21T16:55:19;29.80;35.90
21171;DHT22;10743;52.160;20.910;2022-09-21T16:57:53;29.70;36.00
21171;DHT22;10743;52.160;20.910;2022-09-21T17:00:20;29.70;36.00
21171;DHT22;10743;52.160;20.910;2022-09-21T17:02:48;29.60;36.10
21171;DHT22;10743;52.160;20.910;2022-09-21T17:05:15;29.50;36.10
21171;DHT22;10743;52.160;20.910;2022-09-21T17:08:03;29.50;36.30
21171;DHT22;10743;52.160;20.910;2022-09-21T17:10:33;29.50;36.40
21171;DHT22;10743;52.160;20.910;2022-09-21T17:13:02;29.40;36.50
21171;DHT22;10743;52.160;20.910;2022-09-21T17:15:32;29.40;36.50
21171;DHT22;10743;52.160;20.910;2022-09-21T17:17:59;29.30;36.50
21171;DHT22;10743;52.160;20.910;2022-09-21T17:20:37;29.20;36.60
21171;DHT22;10743;52.160;20.910;2022-09-21T17:23:07;29.10;36.50
21171;DHT22;10743;52.160;20.910;2022-09-21T17:25:35;29.10;36.50
21171;DHT22;10743;52.160;20.910;2022-09-21T17:28:09;29.10;36.70
21171;DHT22;10743;52.160;20.910;2022-09-21T17:30:38;29.10;36.70
21171;DHT22;10743;52.160;20.910;2022-09-21T17:33:09;29.10;36.70
21171;DHT22;10743;52.160;20.910;2022-09-21T17:35:38;29.10;36.70
21171;DHT22;10743;52.160;20.910;2022-09-21T17:38:06;29.00;36.70
21171;DHT22;10743;52.160;20.910;2022-09-21T17:40:40;29.00;36.70
21171;DHT22;10743;52.160;20.910;2022-09-21T17:49:24;29.00;36.70
21171;DHT22;10743;52.160;20.910;2022-09-21T17:51:52;29.00;36.80
21171;DHT22;10743;52.160;20.910;2022-09-21T17:54:37;29.00;36.90
21171;DHT22;10743;52.160;20.910;2022-09-21T17:57:32;29.00;36.90
21171;DHT22;10743;52.160;20.910;2022-09-21T18:00:23;29.00;37.10
21171;DHT22;10743;52.160;20.910;2022-09-21T18:02:53;28.90;37.00
21171;DHT22;10743;52.160;20.910;2022-09-21T18:05:24;28.90;37.20
21171;DHT22;10743;52.160;20.910;2022-09-21T18:07:52;28.90;37.20
21171;DHT22;10743;52.160;20.910;2022-09-21T18:10:22;28.90;37.10
21171;DHT22;10743;52.160;20.910;2022-09-21T18:13:17;28.90;37.30
21171;DHT22;10743;52.160;20.910;2022-09-21T18:16:24;28.90;37.10
21171;DHT22;10743;52.160;20.910;2022-09-21T18:19:15;28.90;37.20
21171;DHT22;10743;52.160;20.910;2022-09-21T18:21:53;28.80;37.10
21171;DHT22;10743;52.160;20.910;2022-09-21T18:24:29;28.80;37.20
21171;DHT22;10743;52.160;20.910;2022-09-21T18:26:59;28.70;37.30
21171;DHT22;10743;52.160;20.910;2022-09-21T18:29:29;28.70;37.30
21171;DHT22;10743;52.160;20.910;2022-09-21T18:38:20;28.70;37.50
21171;DHT22;10743;52.160;20.910;2022-09-21T18:50:09;28.60;37.40
21171;DHT22;10743;52.160;20.910;2022-09-21T18:53:00;28.60;37.50
21171;DHT22;10743;52.160;20.910;2022-09-21T18:55:41;28.60;37.50
21171;DHT22;10743;52.160;20.910;2022-09-21T18:58:13;28.60;37.50
21171;DHT22;10743;52.160;20.910;2022-09-21T19:00:41;28.60;37.40
21171;DHT22;10743;52.160;20.910;2022-09-21T19:03:14;28.50;37.40
21171;DHT22;10743;52.160;20.910;2022-09-21T19:11:39;28.50;37.40
21171;DHT22;10743;52.160;20.910;2022-09-21T19:20:25;28.40;37.50
21171;DHT22;10743;52.160;20.910;2022-09-21T19:25:50;28.40;37.60
21171;DHT22;10743;52.160;20.910;2022-09-21T19:31:17;28.40;37.80
21171;DHT22;10743;52.160;20.910;2022-09-21T19:33:45;28.40;37.80